Time;durP1;ratioP1;P1;durP2;ratioP2;P2;SDS_P1;SDS_P2;PMS_P1;PMS_P2;Temp;Humidity;BMP_temperature;BMP_pressure;BME280_temperature;BME280_humidity;BME280_pressure;Samples;Min_cycle;Max_cycle;Signal;HPM_P1;HPM_P2
2022/02/22 00:00:52;;;;;;;9.75;4.50;;;;;;;2.44;100.00;96337.31;6269457;22;20003;-60
2022/02/22 00:03:17;;;;;;;7.18;4.03;;;;;;;2.45;100.00;96335.56;6269806;22;20023;-60
2022/02/22 00:05:43;;;;;;;7.97;5.55;;;;;;;2.34;100.00;96329.13;6269655;22;20336;-60
2022/02/22 00:08:08;;;;;;;3.63;3.28;;;;;;;2.29;100.00;96324.16;6269521;22;20004;-60
2022/02/22 00:10:33;;;;;;;6.25;2.90;;;;;;;2.22;100.00;96319.34;6242252;22;20060;-60
2022/02/22 00:12:59;;;;;;;3.35;2.38;;;;;;;2.20;100.00;96324.63;6269656;22;20420;-60
2022/02/22 00:15:24;;;;;;;8.05;3.28;;;;;;;2.18;100.00;96329.03;6269722;22;20004;-60
2022/02/22 00:17:50;;;;;;;6.05;3.53;;;;;;;2.12;100.00;96324.16;6269749;22;20039;-61
2022/02/22 00:20:17;;;;;;;3.40;2.85;;;;;;;2.12;100.00;96330.19;6269685;22;20002;-60
2022/02/22 00:22:43;;;;;;;5.03;3.00;;;;;;;2.27;100.00;96328.59;6269099;22;20007;-60
2022/02/22 00:25:11;;;;;;;4.88;3.03;;;;;;;2.20;100.00;96323.75;6269890;22;20004;-60
2022/02/22 00:27:38;;;;;;;5.28;2.80;;;;;;;2.24;100.00;96336.53;6269530;22;20008;-60
2022/02/22 00:30:04;;;;;;;7.70;2.70;;;;;;;2.25;100.00;96340.00;6269683;22;20008;-60
2022/02/22 00:32:30;;;;;;;5.90;3.00;;;;;;;2.24;100.00;96339.13;6269549;22;20029;-60
2022/02/22 00:34:55;;;;;;;5.70;3.05;;;;;;;2.23;100.00;96340.06;6269690;22;20000;-60
2022/02/22 00:37:21;;;;;;;5.22;2.72;;;;;;;2.21;100.00;96343.63;6242484;22;20083;-60
2022/02/22 00:39:46;;;;;;;3.83;2.58;;;;;;;2.17;100.00;96353.34;6269186;22;20335;-61
2022/02/22 00:42:11;;;;;;;6.72;2.35;;;;;;;2.15;100.00;96352.59;6269602;22;20004;-60
2022/02/22 00:44:37;;;;;;;4.13;3.00;;;;;;;2.12;100.00;96344.94;6269833;22;20133;-61
2022/02/22 00:47:03;;;;;;;5.50;2.83;;;;;;;2.09;100.00;96337.25;6269192;22;20061;-61
2022/02/22 00:49:28;;;;;;;5.88;2.33;;;;;;;2.09;100.00;96335.53;6269390;22;20013;-60
2022/02/22 00:51:54;;;;;;;3.58;2.53;;;;;;;2.11;100.00;96344.09;6269749;22;20007;-60
2022/02/22 00:54:19;;;;;;;7.72;2.97;;;;;;;2.17;100.00;96350.75;6269649;22;20027;-60
2022/02/22 00:56:44;;;;;;;3.13;2.50;;;;;;;2.17;100.00;96366.34;6269017;22;20025;-60
2022/02/22 00:59:10;;;;;;;6.65;2.38;;;;;;;2.14;100.00;96359.53;6268900;22;20494;-60
2022/02/22 01:01:35;;;;;;;3.67;2.63;;;;;;;2.14;100.00;96371.69;6269309;22;20059;-60
2022/02/22 01:04:00;;;;;;;4.10;2.08;;;;;;;2.15;100.00;96379.38;6269748;22;20007;-60
2022/02/22 01:06:26;;;;;;;5.43;2.33;;;;;;;2.17;100.00;96381.06;6269334;22;19999;-61
2022/02/22 01:08:51;;;;;;;5.45;3.03;;;;;;;2.20;100.00;96391.31;6269388;22;20017;-61
2022/02/22 01:11:17;;;;;;;4.85;2.72;;;;;;;2.20;100.00;96391.31;6269378;22;20008;-60
2022/02/22 01:13:42;;;;;;;5.20;2.65;;;;;;;2.18;100.00;96390.53;6269558;22;20060;-62
2022/02/22 01:16:07;;;;;;;4.30;2.40;;;;;;;2.19;100.00;96393.09;6269419;22;20003;-60
2022/02/22 01:18:33;;;;;;;5.65;2.92;;;;;;;2.15;100.00;96394.97;6269369;22;20351;-60
2022/02/22 01:20:58;;;;;;;10.55;6.05;;;;;;;2.16;100.00;96403.63;6269560;22;20006;-60
2022/02/22 01:23:23;;;;;;;8.40;4.60;;;;;;;2.17;100.00;96407.91;6269567;22;20031;-61
2022/02/22 01:25:50;;;;;;;6.07;4.00;;;;;;;2.11;100.00;96413.41;6268946;22;20007;-61
2022/02/22 01:28:16;;;;;;;6.57;4.30;;;;;;;2.09;100.00;96417.78;6269283;22;20066;-60
2022/02/22 01:30:41;;;;;;;6.20;4.38;;;;;;;2.09;100.00;96421.25;6269193;22;20460;-61
2022/02/22 01:33:06;;;;;;;8.30;4.53;;;;;;;2.07;100.00;96424.81;6269284;22;20007;-61
2022/02/22 01:35:32;;;;;;;7.20;4.63;;;;;;;2.06;100.00;96433.53;6269422;22;20000;-61
2022/02/22 01:37:57;;;;;;;5.43;3.90;;;;;;;2.07;100.00;96440.41;6242239;22;20165;-61
2022/02/22 01:40:26;;;;;;;3.30;3.00;;;;;;;2.13;100.00;96445.34;6269225;22;19996;-60
2022/02/22 01:42:52;;;;;;;4.53;2.53;;;;;;;2.10;100.00;96448.06;6269543;22;20485;-61
2022/02/22 01:45:21;;;;;;;2.92;2.08;;;;;;;2.09;100.00;96451.56;6269274;22;19999;-60
2022/02/22 01:47:47;;;;;;;1.95;1.85;;;;;;;2.15;100.00;96457.31;6269177;22;20050;-61
2022/02/22 01:50:12;;;;;;;4.30;2.05;;;;;;;2.06;100.00;96449.13;6268391;22;20004;-60
2022/02/22 01:52:37;;;;;;;2.05;1.65;;;;;;;2.01;100.00;96446.75;6269191;22;20011;-60
2022/02/22 01:55:03;;;;;;;2.22;2.05;;;;;;;1.96;100.00;96448.69;6268481;22;20004;-60
2022/02/22 01:57:30;;;;;;;1.83;1.63;;;;;;;1.92;100.00;96452.34;6242440;22;20004;-60
2022/02/22 01:59:55;;;;;;;1.75;1.65;;;;;;;1.83;100.00;96444.06;6269356;22;20090;-60
2022/02/22 02:02:21;;;;;;;2.55;1.60;;;;;;;1.77;100.00;96459.09;6268765;22;20519;-60
2022/02/22 02:04:46;;;;;;;1.92;1.65;;;;;;;1.73;100.00;96460.13;6269194;22;20003;-60
2022/02/22 02:07:11;;;;;;;1.83;1.70;;;;;;;1.68;100.00;96456.00;6268984;22;20000;-60
2022/02/22 02:09:37;;;;;;;2.33;1.50;;;;;;;1.67;100.00;96463.84;6269551;22;19999;-60
2022/02/22 02:12:02;;;;;;;2.03;1.88;;;;;;;1.67;100.00;96467.28;6270314;22;20085;-60
2022/02/22 02:14:28;;;;;;;1.85;1.75;;;;;;;1.69;100.00;96464.63;6270127;22;20008;-60
2022/02/22 02:16:56;;;;;;;2.22;1.77;;;;;;;1.68;100.00;96475.91;6270543;22;20011;-60
2022/02/22 02:19:22;;;;;;;1.80;1.70;;;;;;;1.66;100.00;96477.72;6270276;22;20004;-60
2022/02/22 02:21:49;;;;;;;4.82;2.30;;;;;;;1.63;100.00;96478.69;6270460;22;20011;-61
2022/02/22 02:24:20;;;;;;;2.75;2.10;;;;;;;1.59;100.00;96487.53;6270178;22;20075;-61
2022/02/22 02:26:48;;;;;;;1.80;1.70;;;;;;;1.59;100.00;96492.72;6269979;22;20015;-60
2022/02/22 02:29:16;;;;;;;1.58;1.52;;;;;;;1.61;100.00;96488.31;6269721;22;20396;-61
2022/02/22 02:31:44;;;;;;;1.80;1.70;;;;;;;1.65;100.00;96487.25;6269922;22;20018;-60
2022/02/22 02:34:12;;;;;;;2.08;1.80;;;;;;;1.78;100.00;96504.91;6269788;22;20559;-60
2022/02/22 02:36:39;;;;;;;2.53;2.20;;;;;;;1.74;100.00;96505.97;6269491;22;20451;-60
2022/02/22 02:39:07;;;;;;;6.78;2.67;;;;;;;1.80;100.00;96495.28;6270487;22;20059;-60
2022/02/22 02:41:32;;;;;;;4.53;3.78;;;;;;;1.67;100.00;96511.44;6270526;22;20121;-60
2022/02/22 02:44:11;;;;;;;3.30;2.72;;;;;;;1.68;100.00;96523.50;6270700;22;20024;-60
2022/02/22 02:46:38;;;;;;;5.40;3.13;;;;;;;1.93;100.00;96522.41;6270135;22;20026;-60
2022/02/22 02:49:04;;;;;;;3.42;3.13;;;;;;;1.78;100.00;96523.94;6270473;22;20004;-60
2022/02/22 02:51:29;;;;;;;3.40;3.10;;;;;;;1.71;100.00;96530.28;6269775;22;20046;-60
2022/02/22 02:53:55;;;;;;;5.40;2.63;;;;;;;1.67;100.00;96532.19;6270307;22;20420;-60
2022/02/22 02:56:22;;;;;;;4.50;3.90;;;;;;;1.80;100.00;96526.44;6269969;22;20060;-61
2022/02/22 02:58:52;;;;;;;4.32;3.50;;;;;;;1.73;100.00;96538.84;6269959;22;20788;-60
2022/02/22 03:01:21;;;;;;;4.45;3.47;;;;;;;1.63;100.00;96538.41;6270072;22;20008;-61
2022/02/22 03:03:46;;;;;;;5.05;3.75;;;;;;;1.58;100.00;96542.97;6243009;22;20000;-60
2022/02/22 03:06:12;;;;;;;5.30;3.63;;;;;;;1.57;100.00;96541.28;6269945;22;20431;-60
2022/02/22 03:08:38;;;;;;;4.43;3.55;;;;;;;1.56;100.00;96549.97;6269904;22;20003;-61
2022/02/22 03:11:03;;;;;;;4.43;3.75;;;;;;;1.54;100.00;96542.22;6270159;22;20053;-61
2022/02/22 03:13:29;;;;;;;4.68;3.80;;;;;;;1.55;100.00;96550.88;6269461;22;20004;-61
2022/02/22 03:15:54;;;;;;;3.92;3.30;;;;;;;1.52;100.00;96567.41;6269934;22;20007;-60
2022/02/22 03:18:19;;;;;;;6.00;4.22;;;;;;;1.52;100.00;96572.59;6270059;22;19999;-60
2022/02/22 03:20:45;;;;;;;6.63;3.70;;;;;;;1.52;100.00;96567.41;6269529;22;20083;-60
2022/02/22 03:23:10;;;;;;;3.35;3.15;;;;;;;1.51;100.00;96573.50;6269844;22;19999;-60
2022/02/22 03:25:36;;;;;;;4.72;3.53;;;;;;;1.53;100.00;96570.88;6269490;22;20079;-61
2022/02/22 03:28:05;;;;;;;2.70;2.50;;;;;;;1.53;100.00;96576.88;6242979;22;20074;-61
2022/02/22 03:30:32;;;;;;;2.55;2.28;;;;;;;1.54;100.00;96583.75;6269568;22;20007;-60
2022/02/22 03:32:58;;;;;;;5.57;2.60;;;;;;;1.55;100.00;96589.81;6270182;22;20082;-60
2022/02/22 03:35:24;;;;;;;3.15;2.45;;;;;;;1.63;100.00;96587.72;6269758;22;20006;-61
2022/02/22 03:37:49;;;;;;;3.40;3.10;;;;;;;1.70;100.00;96593.50;6269614;22;20023;-60
2022/02/22 03:40:15;;;;;;;3.85;3.50;;;;;;;1.67;100.00;96596.25;6242855;22;20007;-61
2022/02/22 03:42:44;;;;;;;5.47;4.28;;;;;;;1.61;100.00;96594.75;6269823;22;19996;-61
2022/02/22 03:45:14;;;;;;;6.45;4.85;;;;;;;1.57;100.00;96604.44;6242709;22;20379;-60
2022/02/22 03:47:41;;;;;;;8.15;5.22;;;;;;;1.56;100.00;96613.13;6269853;22;20654;-60
2022/02/22 03:50:08;;;;;;;7.60;6.35;;;;;;;1.94;100.00;96609.81;6269806;22;20004;-61
2022/02/22 03:52:34;;;;;;;9.23;7.68;;;;;;;2.01;100.00;96615.59;6269811;22;20006;-60
2022/02/22 03:55:01;;;;;;;10.57;8.77;;;;;;;1.86;100.00;96615.31;6269861;22;19999;-61
2022/02/22 03:57:26;;;;;;;7.18;5.10;;;;;;;1.81;100.00;96616.44;6269506;22;20023;-60
2022/02/22 03:59:52;;;;;;;4.43;4.03;;;;;;;2.00;100.00;96622.53;6269640;22;20011;-61
2022/02/22 04:02:18;;;;;;;4.68;3.20;;;;;;;1.75;100.00;96614.09;6269575;22;20592;-60
2022/02/22 04:04:43;;;;;;;3.97;3.10;;;;;;;1.59;100.00;96625.13;6269534;22;20008;-60
2022/02/22 04:07:08;;;;;;;4.40;3.35;;;;;;;1.51;100.00;96627.19;6269622;22;20025;-60
2022/02/22 04:09:34;;;;;;;5.28;3.45;;;;;;;1.47;100.00;96612.66;6268690;22;20317;-60
2022/02/22 04:11:59;;;;;;;4.20;3.88;;;;;;;1.47;100.00;96620.44;6269500;22;20050;-60
2022/02/22 04:14:24;;;;;;;5.43;4.93;;;;;;;1.46;100.00;96627.38;6269679;22;19999;-60
2022/02/22 04:16:50;;;;;;;5.60;4.35;;;;;;;1.47;100.00;96623.03;6269381;22;20082;-60
2022/02/22 04:19:16;;;;;;;6.50;3.30;;;;;;;1.55;100.00;96627.00;6270191;22;20023;-60
2022/02/22 04:21:42;;;;;;;3.63;3.33;;;;;;;1.47;100.00;96626.47;6269773;22;19996;-60
2022/02/22 04:24:07;;;;;;;5.85;4.40;;;;;;;1.43;100.00;96632.69;6270215;22;20059;-61
2022/02/22 04:26:32;;;;;;;13.02;8.45;;;;;;;1.42;100.00;96637.03;6269846;22;20016;-60
2022/02/22 04:29:00;;;;;;;5.70;5.10;;;;;;;1.44;100.00;96636.97;6270002;22;20007;-61
2022/02/22 04:31:33;;;;;;;7.35;5.22;;;;;;;1.41;100.00;96643.13;6242908;22;20015;-61
2022/02/22 04:33:59;;;;;;;5.82;5.22;;;;;;;1.40;100.00;96643.19;6270368;22;20374;-60
2022/02/22 04:36:25;;;;;;;10.52;5.45;;;;;;;1.45;100.00;96653.41;6270059;22;20004;-60
2022/02/22 04:38:50;;;;;;;11.73;7.78;;;;;;;1.45;100.00;96656.81;6269912;22;20432;-60
2022/02/22 04:41:16;;;;;;;12.40;8.98;;;;;;;1.46;100.00;96665.47;6269920;22;20040;-61
2022/02/22 04:43:41;;;;;;;11.60;8.65;;;;;;;1.45;100.00;96667.22;6269803;22;20400;-61
2022/02/22 04:46:06;;;;;;;8.70;6.45;;;;;;;1.46;100.00;96668.06;6270045;22;20033;-61
2022/02/22 04:48:32;;;;;;;8.77;6.35;;;;;;;1.47;100.00;96674.94;6269360;22;20000;-61
2022/02/22 04:50:57;;;;;;;6.80;4.88;;;;;;;1.50;100.00;96677.41;6270045;22;20031;-61
2022/02/22 04:53:22;;;;;;;5.75;3.85;;;;;;;1.54;100.00;96684.16;6270045;22;20340;-61
2022/02/22 04:55:48;;;;;;;5.10;3.50;;;;;;;1.55;100.00;96694.50;6269616;22;20042;-61
2022/02/22 04:58:13;;;;;;;5.45;2.90;;;;;;;1.58;100.00;96693.50;6269734;22;20015;-60
2022/02/22 05:00:38;;;;;;;2.60;2.40;;;;;;;1.62;100.00;96700.25;6269659;22;20068;-61
2022/02/22 05:03:04;;;;;;;3.67;3.08;;;;;;;1.67;100.00;96711.34;6270246;22;20035;-60
2022/02/22 05:05:29;;;;;;;4.50;2.95;;;;;;;1.72;100.00;96721.50;6269739;22;20127;-61
2022/02/22 05:07:55;;;;;;;3.05;2.72;;;;;;;1.71;100.00;96719.81;6270241;22;20000;-61
2022/02/22 05:10:20;;;;;;;3.55;3.03;;;;;;;1.71;100.00;96723.28;6270055;22;20027;-60
2022/02/22 05:12:46;;;;;;;5.55;4.75;;;;;;;1.74;100.00;96724.06;6269927;22;20011;-61
2022/02/22 05:15:11;;;;;;;3.60;3.30;;;;;;;1.76;100.00;96730.03;6269996;22;20455;-60
2022/02/22 05:17:38;;;;;;;4.70;2.90;;;;;;;1.75;100.00;96731.75;6269291;22;20053;-61
2022/02/22 05:20:07;;;;;;;2.28;2.08;;;;;;;1.75;100.00;96723.16;6270124;22;20091;-60
2022/02/22 05:22:43;;;;;;;2.15;1.92;;;;;;;1.75;100.00;96720.56;6270003;22;20487;-60
2022/02/22 05:25:10;;;;;;;5.05;2.13;;;;;;;1.75;100.00;96721.38;6270333;22;20011;-61
2022/02/22 05:27:35;;;;;;;2.30;2.10;;;;;;;1.74;100.00;96722.28;6269446;22;20012;-61
2022/02/22 05:30:03;;;;;;;3.75;3.30;;;;;;;1.72;100.00;96721.50;6269917;22;20431;-61
2022/02/22 05:32:29;;;;;;;4.72;3.85;;;;;;;1.70;100.00;96724.19;6269649;22;20004;-60
2022/02/22 05:34:55;;;;;;;4.97;3.50;;;;;;;1.69;100.00;96730.28;6269941;22;20004;-60
2022/02/22 05:37:20;;;;;;;5.80;5.30;;;;;;;1.78;100.00;96731.66;6269794;22;20083;-60
2022/02/22 05:39:45;;;;;;;5.70;3.67;;;;;;;1.71;100.00;96736.25;6269499;22;20004;-60
2022/02/22 05:42:10;;;;;;;7.32;6.13;;;;;;;1.68;100.00;96726.00;6269735;22;20369;-61
2022/02/22 05:44:36;;;;;;;6.57;5.80;;;;;;;1.67;100.00;96724.31;6269286;22;20004;-61
2022/02/22 05:47:02;;;;;;;6.22;5.32;;;;;;;1.62;100.00;96726.22;6242455;22;20007;-61
2022/02/22 05:49:27;;;;;;;5.45;4.40;;;;;;;1.53;100.00;96731.78;6269582;22;20000;-61
2022/02/22 05:51:54;;;;;;;7.38;3.10;;;;;;;1.47;100.00;96729.44;6269817;22;20010;-61
2022/02/22 05:54:19;;;;;;;5.32;2.67;;;;;;;1.41;100.00;96726.16;6270123;22;20347;-60
2022/02/22 05:56:45;;;;;;;2.60;2.40;;;;;;;1.40;100.00;96737.44;6269500;22;20511;-60
2022/02/22 05:59:11;;;;;;;3.78;2.65;;;;;;;1.35;100.00;96735.97;6269683;22;20004;-61
2022/02/22 06:01:38;;;;;;;2.97;2.78;;;;;;;1.32;100.00;96730.88;6269354;22;20000;-61
2022/02/22 06:04:05;;;;;;;5.25;4.63;;;;;;;1.28;100.00;96719.78;6269812;22;20004;-61
2022/02/22 06:06:30;;;;;;;6.55;5.03;;;;;;;1.28;100.00;96717.19;6269744;22;20004;-60
2022/02/22 06:08:56;;;;;;;3.33;3.13;;;;;;;1.23;100.00;96706.16;6267776;22;20032;-60
2022/02/22 06:11:21;;;;;;;3.67;3.38;;;;;;;1.14;100.00;96697.81;6268224;22;20052;-60
2022/02/22 06:13:47;;;;;;;3.40;3.05;;;;;;;1.08;100.00;96692.84;6269290;22;20090;-61
2022/02/22 06:16:12;;;;;;;6.20;2.70;;;;;;;1.09;100.00;96691.09;6268907;22;20010;-60
2022/02/22 06:18:38;;;;;;;3.83;2.50;;;;;;;1.00;100.00;96694.91;6269257;22;20007;-61
2022/02/22 06:21:03;;;;;;;3.33;2.53;;;;;;;0.94;100.00;96690.78;6269540;22;20431;-61
2022/02/22 06:23:28;;;;;;;3.80;2.60;;;;;;;0.94;100.00;96687.34;6269158;22;20008;-60
2022/02/22 06:25:54;;;;;;;6.00;2.30;;;;;;;0.98;100.00;96674.22;6268749;22;20022;-61
2022/02/22 06:28:19;;;;;;;2.53;2.33;;;;;;;1.00;100.00;96676.75;6268519;22;20004;-60
2022/02/22 06:30:45;;;;;;;5.10;3.45;;;;;;;1.03;100.00;96686.16;6268250;22;20033;-60
2022/02/22 06:33:10;;;;;;;5.80;3.80;;;;;;;1.07;100.00;96688.56;6269287;22;20402;-60
2022/02/22 06:35:35;;;;;;;11.77;5.30;;;;;;;1.05;100.00;96686.94;6269127;22;20000;-60
2022/02/22 06:38:01;;;;;;;8.80;5.22;;;;;;;1.04;100.00;96699.06;6269271;22;20075;-60
2022/02/22 06:40:27;;;;;;;7.07;5.07;;;;;;;0.98;100.00;96705.31;6268660;22;20431;-60
2022/02/22 06:42:53;;;;;;;6.18;3.95;;;;;;;1.11;100.00;96705.69;6269058;22;19999;-60
2022/02/22 06:45:19;;;;;;;7.13;2.90;;;;;;;1.36;100.00;96699.56;6269068;22;20015;-60
2022/02/22 06:47:44;;;;;;;7.60;2.92;;;;;;;1.40;100.00;96713.28;6269003;22;19995;-60
2022/02/22 06:50:11;;;;;;;4.18;2.85;;;;;;;1.42;100.00;96714.88;6269076;22;20071;-60
2022/02/22 06:52:39;;;;;;;5.93;3.78;;;;;;;1.40;100.00;96719.28;6268730;22;20065;-60
2022/02/22 06:55:06;;;;;;;8.80;6.45;;;;;;;1.23;100.00;96725.13;6268942;22;20110;-61
2022/02/22 06:57:33;;;;;;;9.05;8.23;;;;;;;1.16;100.00;96730.63;6270649;22;20008;-60
2022/02/22 06:59:58;;;;;;;14.73;9.18;;;;;;;1.15;100.00;96737.56;6243432;22;20023;-61
2022/02/22 07:02:23;;;;;;;12.77;9.80;;;;;;;1.16;100.00;96733.22;6270020;22;20367;-61
2022/02/22 07:04:49;;;;;;;10.70;9.02;;;;;;;1.19;100.00;96730.50;6270118;22;20004;-60
2022/02/22 07:07:14;;;;;;;10.95;9.32;;;;;;;1.19;100.00;96733.09;6270028;22;20355;-60
2022/02/22 07:09:39;;;;;;;13.02;9.00;;;;;;;1.24;100.00;96726.00;6268990;22;20007;-60
2022/02/22 07:12:05;;;;;;;11.48;10.02;;;;;;;1.31;100.00;96727.44;6270085;22;20004;-61
2022/02/22 07:14:30;;;;;;;13.43;10.73;;;;;;;1.56;100.00;96742.06;6269591;22;20063;-60
2022/02/22 07:16:56;;;;;;;11.77;10.07;;;;;;;1.47;100.00;96738.06;6269643;22;20004;-60
2022/02/22 07:19:22;;;;;;;13.10;10.57;;;;;;;1.49;100.00;96732.81;6269867;22;20384;-60
2022/02/22 07:21:48;;;;;;;12.10;10.02;;;;;;;1.58;100.00;96729.84;6269184;22;20108;-61
2022/02/22 07:24:13;;;;;;;11.85;10.60;;;;;;;1.53;100.00;96731.78;6240762;22;20079;-61
2022/02/22 07:26:38;;;;;;;14.70;11.88;;;;;;;1.50;100.00;96739.69;6242123;22;20018;-60
2022/02/22 07:29:04;;;;;;;20.15;13.95;;;;;;;1.57;100.00;96741.16;6269000;22;20007;-61
2022/02/22 07:31:30;;;;;;;16.33;10.68;;;;;;;1.51;100.00;96739.63;6269518;22;20004;-61
2022/02/22 07:33:55;;;;;;;20.77;12.93;;;;;;;1.49;100.00;96735.41;6269993;22;20348;-60
2022/02/22 07:36:21;;;;;;;15.32;11.95;;;;;;;1.49;100.00;96731.06;6269990;22;20003;-61
2022/02/22 07:38:46;;;;;;;21.05;12.50;;;;;;;1.58;100.00;96729.84;6270157;22;20031;-60
2022/02/22 07:41:11;;;;;;;15.15;12.52;;;;;;;1.56;100.00;96731.66;6269916;22;20000;-60
2022/02/22 07:43:37;;;;;;;12.98;10.90;;;;;;;1.49;100.00;96731.06;6269245;22;20459;-60
2022/02/22 07:46:02;;;;;;;13.27;10.35;;;;;;;1.54;100.00;96726.53;6268501;22;20027;-61
2022/02/22 07:48:27;;;;;;;12.52;10.73;;;;;;;1.57;100.00;96722.97;6268479;22;20386;-60
2022/02/22 07:50:53;;;;;;;14.20;11.55;;;;;;;1.53;100.00;96727.44;6266721;22;20079;-60
2022/02/22 07:53:18;;;;;;;14.95;11.73;;;;;;;1.55;100.00;96728.25;6267162;22;20011;-60
2022/02/22 07:55:44;;;;;;;13.15;11.38;;;;;;;1.57;100.00;96733.34;6266090;22;20665;-60
2022/02/22 07:58:11;;;;;;;14.38;12.88;;;;;;;1.60;100.00;96722.84;6268546;22;20060;-61
2022/02/22 08:00:37;;;;;;;14.77;10.23;;;;;;;1.61;100.00;96713.31;6269017;22;20083;-61
2022/02/22 08:03:02;;;;;;;13.10;9.98;;;;;;;1.64;100.00;96714.03;6268621;22;20403;-62
2022/02/22 08:05:29;;;;;;;12.02;8.55;;;;;;;1.74;100.00;96713.66;6268413;22;20015;-61
2022/02/22 08:07:54;;;;;;;13.07;8.52;;;;;;;1.96;100.00;96724.00;6269623;22;20003;-60
2022/02/22 08:10:20;;;;;;;10.13;8.98;;;;;;;1.94;100.00;96726.69;6269761;22;20011;-61
2022/02/22 08:12:46;;;;;;;12.18;9.30;;;;;;;2.17;100.00;96722.28;6269707;22;20080;-61
2022/02/22 08:15:11;;;;;;;11.40;10.05;;;;;;;2.26;100.00;96711.50;6268243;22;20008;-62
2022/02/22 08:17:40;;;;;;;9.60;8.30;;;;;;;2.36;100.00;96729.31;6268573;22;20036;-63
2022/02/22 08:20:07;;;;;;;10.15;7.75;;;;;;;2.52;100.00;96727.72;6268580;22;20008;-61
2022/02/22 08:22:32;;;;;;;8.57;7.75;;;;;;;2.66;100.00;96727.13;6268528;22;19999;-61
2022/02/22 08:24:57;;;;;;;11.10;8.60;;;;;;;2.69;100.00;96727.00;6267920;22;20004;-63
2022/02/22 08:27:23;;;;;;;9.27;8.48;;;;;;;2.69;100.00;96736.53;6269316;22;20011;-62
2022/02/22 08:29:48;;;;;;;10.10;9.20;;;;;;;2.67;100.00;96733.16;6268023;22;20015;-62
2022/02/22 08:32:14;;;;;;;9.20;8.38;;;;;;;2.56;100.00;96729.28;6269673;22;20420;-60
2022/02/22 08:34:39;;;;;;;11.23;10.10;;;;;;;2.70;100.00;96733.03;6269385;22;20004;-60
2022/02/22 08:37:04;;;;;;;11.90;10.70;;;;;;;2.64;100.00;96735.91;6269362;22;20045;-61
2022/02/22 08:39:30;;;;;;;17.15;11.93;;;;;;;2.55;100.00;96743.19;6269360;22;20031;-61
2022/02/22 08:41:55;;;;;;;15.55;13.88;;;;;;;2.55;100.00;96743.19;6269534;22;20436;-63
2022/02/22 08:44:21;;;;;;;13.05;11.85;;;;;;;2.64;100.00;96744.53;6269709;22;20045;-63
2022/02/22 08:46:46;;;;;;;10.65;9.65;;;;;;;2.55;100.00;96748.41;6267968;22;20037;-62
2022/02/22 08:49:11;;;;;;;13.20;11.00;;;;;;;2.40;100.00;96744.69;6269137;22;20083;-62
2022/02/22 08:51:37;;;;;;;15.60;10.57;;;;;;;2.46;100.00;96759.19;6269668;22;20074;-62
2022/02/22 08:54:04;;;;;;;12.73;10.65;;;;;;;2.75;100.00;96754.47;6268124;22;20396;-63
2022/02/22 08:56:30;;;;;;;11.05;9.70;;;;;;;3.05;100.00;96759.22;6267990;22;20079;-62
2022/02/22 08:58:55;;;;;;;12.13;10.98;;;;;;;3.20;100.00;96747.28;6267754;22;20031;-63
2022/02/22 09:01:21;;;;;;;11.50;10.38;;;;;;;3.65;100.00;96759.97;6268270;22;20007;-62
2022/02/22 09:03:46;;;;;;;9.82;8.77;;;;;;;3.86;100.00;96755.47;6268624;22;20316;-62
2022/02/22 09:06:12;;;;;;;20.77;17.27;;;;;;;3.84;100.00;96758.19;6269409;22;20076;-61
2022/02/22 09:08:37;;;;;;;12.23;10.90;;;;;;;4.09;100.00;96751.75;6268047;22;20000;-61
2022/02/22 09:11:03;;;;;;;17.77;10.23;;;;;;;4.42;99.32;96744.94;6268721;22;20003;-61
2022/02/22 09:13:28;;;;;;;14.57;12.35;;;;;;;4.76;97.53;96744.97;6268956;22;20087;-61
2022/02/22 09:15:53;;;;;;;10.00;9.07;;;;;;;4.73;96.23;96741.59;6269018;22;20436;-61
2022/02/22 09:18:19;;;;;;;10.13;8.32;;;;;;;4.71;96.09;96746.06;6267610;22;20335;-61
2022/02/22 09:20:45;;;;;;;9.07;8.10;;;;;;;5.07;96.40;96754.63;6268438;22;20007;-60
2022/02/22 09:23:11;;;;;;;8.80;6.82;;;;;;;5.01;94.17;96754.97;6269177;22;20003;-61
2022/02/22 09:25:36;;;;;;;7.63;6.90;;;;;;;5.10;94.71;96753.63;6268175;22;20075;-61
2022/02/22 09:28:07;;;;;;;7.55;6.85;;;;;;;4.95;93.54;96748.31;6269048;22;20461;-61
2022/02/22 09:30:34;;;;;;;10.75;8.13;;;;;;;4.89;93.69;96753.84;6269574;22;20000;-61
2022/02/22 09:33:00;;;;;;;10.75;7.80;;;;;;;4.73;93.37;96745.97;6269164;22;20450;-61
2022/02/22 09:35:27;;;;;;;8.90;8.00;;;;;;;4.80;94.98;96757.78;6269388;22;20011;-61
2022/02/22 09:37:54;;;;;;;13.18;10.82;;;;;;;4.96;95.72;96744.75;6269417;22;20079;-61
2022/02/22 09:40:22;;;;;;;9.00;8.10;;;;;;;4.95;93.43;96756.13;6269254;22;20461;-61
2022/02/22 09:42:48;;;;;;;11.40;7.07;;;;;;;4.85;92.48;96758.38;6269123;22;20021;-61
2022/02/22 09:45:14;;;;;;;8.45;7.00;;;;;;;5.08;92.94;96750.25;6269058;22;20004;-61
2022/02/22 09:47:41;;;;;;;10.20;7.47;;;;;;;5.06;92.03;96749.47;6269036;22;20003;-61
2022/02/22 09:50:07;;;;;;;7.82;6.93;;;;;;;5.37;90.36;96745.25;6269337;22;20011;-61
2022/02/22 09:52:33;;;;;;;7.90;7.10;;;;;;;5.63;90.97;96738.56;6269239;22;20161;-61
2022/02/22 09:54:58;;;;;;;7.15;6.38;;;;;;;6.18;89.96;96739.00;6269333;22;20053;-60
2022/02/22 09:57:24;;;;;;;5.05;4.55;;;;;;;6.81;87.68;96737.06;6269724;22;20649;-61
2022/02/22 09:59:50;;;;;;;5.60;2.42;;;;;;;7.54;83.13;96737.00;6268770;22;20035;-61
2022/02/22 10:02:15;;;;;;;2.72;2.08;;;;;;;7.95;82.06;96732.63;6269000;22;20023;-61
2022/02/22 10:04:45;;;;;;;5.57;2.40;;;;;;;8.06;79.16;96739.78;6268803;22;20003;-61
2022/02/22 10:07:12;;;;;;;4.05;2.53;;;;;;;8.15;77.89;96747.91;6269034;22;20006;-61
2022/02/22 10:10:00;;;;;;;4.97;2.20;;;;;;;7.88;77.10;96750.56;6268818;22;20038;-61
2022/02/22 10:12:30;;;;;;;3.53;2.20;;;;;;;8.21;77.21;96730.09;6269151;22;20004;-61
2022/02/22 10:14:57;;;;;;;2.83;2.03;;;;;;;8.58;76.93;96736.38;6268932;22;20006;-61
2022/02/22 10:17:23;;;;;;;2.88;1.83;;;;;;;8.35;75.47;96724.75;6268892;22;20004;-61
2022/02/22 10:20:04;;;;;;;2.08;1.90;;;;;;;8.52;73.38;96721.06;6241463;22;20021;-61
2022/02/22 10:22:30;;;;;;;3.60;1.80;;;;;;;8.66;73.77;96717.47;6268872;22;20035;-61
2022/02/22 10:25:08;;;;;;;2.92;1.90;;;;;;;8.91;74.88;96717.56;6268831;22;20004;-61
2022/02/22 10:27:44;;;;;;;2.80;1.80;;;;;;;9.20;72.19;96717.34;6268959;22;20061;-61
2022/02/22 10:30:46;;;;;;;3.55;1.80;;;;;;;9.24;72.47;96716.16;6269346;22;20489;-61
2022/02/22 10:33:19;;;;;;;2.10;1.30;;;;;;;9.36;70.22;96719.72;6272455;22;20529;-61
2022/02/22 10:35:53;;;;;;;3.75;1.35;;;;;;;9.33;71.07;96728.63;6270714;22;20011;-61
2022/02/22 10:38:23;;;;;;;2.78;1.70;;;;;;;9.17;72.41;96732.38;6270364;22;20060;-61
2022/02/22 10:40:56;;;;;;;1.27;1.27;;;;;;;9.43;71.41;96731.47;6269944;22;20010;-61
2022/02/22 10:43:27;;;;;;;2.15;1.70;;;;;;;9.57;69.39;96733.09;6270658;22;20048;-61
2022/02/22 10:45:56;;;;;;;1.60;1.50;;;;;;;9.60;64.82;96724.97;6270101;22;20053;-62
2022/02/22 10:48:33;;;;;;;2.97;1.90;;;;;;;10.18;67.43;96721.69;6270361;22;20079;-61
2022/02/22 10:51:01;;;;;;;1.25;1.17;;;;;;;10.57;63.88;96708.28;6270292;22;20355;-61
2022/02/22 10:53:29;;;;;;;2.13;1.20;;;;;;;10.91;62.95;96707.50;6270752;22;20083;-61
2022/02/22 10:55:56;;;;;;;2.05;1.40;;;;;;;11.42;61.00;96711.44;6269816;22;20008;-61
2022/02/22 10:58:23;;;;;;;1.73;1.50;;;;;;;11.61;61.18;96709.00;6270149;22;20004;-60
2022/02/22 11:00:49;;;;;;;2.65;1.40;;;;;;;11.58;58.73;96711.03;6270163;22;20004;-62
2022/02/22 11:03:14;;;;;;;3.85;1.27;;;;;;;11.47;58.88;96709.25;6269891;22;20503;-61
2022/02/22 11:05:40;;;;;;;4.28;1.70;;;;;;;11.79;59.41;96702.34;6269926;22;20003;-61
2022/02/22 11:08:05;;;;;;;4.40;1.70;;;;;;;11.94;58.40;96698.47;6267139;22;20004;-61
2022/02/22 11:10:31;;;;;;;1.70;1.60;;;;;;;11.98;57.55;96696.44;6269193;22;20406;-62
2022/02/22 11:12:59;;;;;;;1.85;1.45;;;;;;;12.48;57.70;96705.56;6269434;22;20557;-61
2022/02/22 11:15:39;;;;;;;2.92;1.50;;;;;;;12.72;56.19;96700.03;6269556;22;20069;-61
2022/02/22 11:18:24;;;;;;;3.67;1.75;;;;;;;12.65;54.09;96699.72;6269166;22;20008;-61
2022/02/22 11:20:51;;;;;;;3.80;1.88;;;;;;;12.40;55.05;96700.94;6269671;22;19996;-61
2022/02/22 11:23:28;;;;;;;3.75;1.80;;;;;;;12.64;55.47;96708.59;6269633;22;20031;-61
2022/02/22 11:26:10;;;;;;;2.95;2.13;;;;;;;12.58;53.85;96709.94;6269221;22;20012;-62
2022/02/22 11:28:42;;;;;;;6.63;2.28;;;;;;;12.84;54.20;96701.59;6269222;22;20004;-61